Time;durP1;ratioP1;P1;durP2;ratioP2;P2;SDS_P1;SDS_P2;PMS_P1;PMS_P2;Temp;Humidity;BMP_temperature;BMP_pressure;BME280_temperature;BME280_humidity;BME280_pressure;Samples;Min_cycle;Max_cycle;Signal;HPM_P1;HPM_P2
2022/04/11 00:00:20;;;;;;;7.25;2.35;;;;;;;;;;5029519;28;20044;-64
2022/04/11 00:02:45;;;;;;;4.03;1.65;;;;;;;;;;5032480;28;20056;-62
2022/04/11 00:05:11;;;;;;;5.55;1.88;;;;;;;;;;5021373;28;20488;-63
2022/04/11 00:07:36;;;;;;;7.03;2.40;;;;;;;;;;5032186;28;20108;-60
2022/04/11 00:10:02;;;;;;;4.88;1.75;;;;;;;;;;5032167;28;20057;-60
2022/04/11 00:12:34;;;;;;;6.53;2.80;;;;;;;;;;5020906;28;20018;-64
2022/04/11 00:15:00;;;;;;;6.38;2.33;;;;;;;;;;5026507;28;20080;-64
2022/04/11 00:20:01;;;;;;;23.35;10.07;;;;;;;;;;5295588;22;20057;-62
2022/04/11 00:22:26;;;;;;;18.95;6.75;;;;;;;;;;4987692;28;20038;-62
2022/04/11 00:24:52;;;;;;;16.30;4.45;;;;;;;;;;4983989;28;20038;-64
2022/04/11 00:27:18;;;;;;;9.52;2.83;;;;;;;;;;4984495;28;20475;-64
2022/04/11 00:29:43;;;;;;;9.07;2.85;;;;;;;;;;4989784;28;20041;-64
2022/04/11 00:32:09;;;;;;;10.25;3.92;;;;;;;;;;4992248;28;20022;-63
2022/04/11 00:34:34;;;;;;;9.30;3.08;;;;;;;;;;4993011;28;20029;-62
2022/04/11 00:37:00;;;;;;;7.22;1.70;;;;;;;;;;4993277;28;20030;-64
2022/04/11 00:39:25;;;;;;;6.25;1.70;;;;;;;;;;4993074;28;20030;-64
2022/04/11 00:41:51;;;;;;;2.97;1.40;;;;;;;;;;4993376;28;20446;-64
2022/04/11 00:44:16;;;;;;;4.72;1.42;;;;;;;;;;4993357;28;20022;-64
2022/04/11 00:46:42;;;;;;;6.00;1.98;;;;;;;;;;4993156;28;20126;-64
2022/04/11 00:49:08;;;;;;;3.72;1.70;;;;;;;;;;4992979;28;20097;-64
2022/04/11 00:51:34;;;;;;;7.05;2.10;;;;;;;;;;4993000;28;20120;-64
2022/04/11 00:54:01;;;;;;;6.03;1.65;;;;;;;;;;4993030;28;20030;-64
2022/04/11 00:56:28;;;;;;;5.00;2.00;;;;;;;;;;4992953;28;20110;-64
2022/04/11 00:58:55;;;;;;;3.95;1.60;;;;;;;;;;4992887;28;20023;-62
2022/04/11 01:01:21;;;;;;;6.38;2.20;;;;;;;;;;4992912;28;20054;-64
2022/04/11 01:03:46;;;;;;;5.03;1.30;;;;;;;;;;4992706;28;20061;-64
2022/04/11 01:06:12;;;;;;;4.45;1.60;;;;;;;;;;4992468;28;20054;-62
2022/04/11 01:08:38;;;;;;;3.75;1.80;;;;;;;;;;4992198;28;20107;-64
2022/04/11 01:11:04;;;;;;;2.70;1.33;;;;;;;;;;4992900;28;20034;-62
2022/04/11 01:13:30;;;;;;;5.90;1.60;;;;;;;;;;4992032;28;20077;-64
2022/04/11 01:16:00;;;;;;;14.38;8.10;;;;;;;;;;4992043;28;20486;-61
2022/04/11 01:18:26;;;;;;;22.95;12.50;;;;;;;;;;4991725;28;20117;-61
2022/04/11 01:20:52;;;;;;;28.02;12.88;;;;;;;;;;4992939;28;20035;-63
2022/04/11 01:23:18;;;;;;;7.57;4.97;;;;;;;;;;4993794;28;20026;-64
2022/04/11 01:25:53;;;;;;;29.65;8.57;;;;;;;;;;4993688;28;20029;-64
2022/04/11 01:28:21;;;;;;;20.45;5.88;;;;;;;;;;4992857;28;20034;-61
2022/04/11 01:30:49;;;;;;;12.77;4.85;;;;;;;;;;4993122;28;20042;-61
2022/04/11 01:33:20;;;;;;;22.95;6.18;;;;;;;;;;4992835;28;20026;-63
2022/04/11 01:35:46;;;;;;;20.70;6.47;;;;;;;;;;4993229;28;20030;-62
2022/04/11 01:38:12;;;;;;;15.73;5.47;;;;;;;;;;4993392;28;20049;-61
2022/04/11 01:40:45;;;;;;;6.47;3.05;;;;;;;;;;4993548;28;20109;-62
2022/04/11 01:43:11;;;;;;;8.98;3.13;;;;;;;;;;4993113;28;20106;-63
2022/04/11 01:45:36;;;;;;;13.13;4.03;;;;;;;;;;4991313;28;20153;-63
2022/04/11 01:48:02;;;;;;;4.32;1.92;;;;;;;;;;4990984;28;20026;-62
2022/04/11 01:50:27;;;;;;;8.63;2.47;;;;;;;;;;4991372;28;20038;-63
2022/04/11 01:52:53;;;;;;;6.90;2.40;;;;;;;;;;4991943;28;20026;-64
2022/04/11 01:55:18;;;;;;;6.65;2.88;;;;;;;;;;4992122;28;20031;-62
2022/04/11 01:57:44;;;;;;;6.05;2.22;;;;;;;;;;5002779;28;20375;-64
2022/04/11 02:00:10;;;;;;;6.13;2.63;;;;;;;;;;5011470;28;20386;-62
2022/04/11 02:02:35;;;;;;;7.78;3.00;;;;;;;;;;4996544;28;20023;-62
2022/04/11 02:05:01;;;;;;;5.70;2.55;;;;;;;;;;4991849;28;20398;-63
2022/04/11 02:07:26;;;;;;;6.75;3.22;;;;;;;;;;4992240;28;20033;-65
2022/04/11 02:09:52;;;;;;;16.40;6.72;;;;;;;;;;4993271;28;20029;-64
2022/04/11 02:12:17;;;;;;;7.43;4.63;;;;;;;;;;4993156;28;20030;-64
2022/04/11 02:14:43;;;;;;;11.13;5.05;;;;;;;;;;4992914;28;20113;-63
2022/04/11 02:17:08;;;;;;;8.68;3.65;;;;;;;;;;4992541;28;20026;-65
2022/04/11 02:19:34;;;;;;;7.32;3.20;;;;;;;;;;4990756;28;20096;-65
2022/04/11 02:21:59;;;;;;;5.15;3.00;;;;;;;;;;4973104;28;20031;-63
2022/04/11 02:24:25;;;;;;;9.57;2.53;;;;;;;;;;4973201;28;20586;-65
2022/04/11 02:26:50;;;;;;;10.20;2.88;;;;;;;;;;4973672;28;20034;-64
2022/04/11 02:29:16;;;;;;;8.18;2.88;;;;;;;;;;4973331;28;20039;-63
2022/04/11 02:31:41;;;;;;;7.50;3.35;;;;;;;;;;4973544;28;20526;-64
2022/04/11 02:34:06;;;;;;;7.32;3.50;;;;;;;;;;4973764;28;20033;-64
2022/04/11 02:36:32;;;;;;;8.70;3.03;;;;;;;;;;4973569;28;20089;-63
2022/04/11 02:38:57;;;;;;;7.40;4.35;;;;;;;;;;4973405;28;20468;-64
2022/04/11 02:41:23;;;;;;;15.95;7.43;;;;;;;;;;4973742;28;20106;-62
2022/04/11 02:43:48;;;;;;;14.45;6.45;;;;;;;;;;4972956;28;20082;-63
2022/04/11 02:46:15;;;;;;;17.85;4.28;;;;;;;;;;4972839;28;20033;-64
2022/04/11 02:48:41;;;;;;;11.43;3.65;;;;;;;;;;4972588;28;20027;-63
2022/04/11 02:51:06;;;;;;;6.13;3.15;;;;;;;;;;4974015;28;20082;-64
2022/04/11 02:53:31;;;;;;;10.02;4.18;;;;;;;;;;4991221;28;20608;-64
2022/04/11 02:55:57;;;;;;;8.40;3.97;;;;;;;;;;4993242;28;20073;-63
2022/04/11 02:58:22;;;;;;;11.98;4.50;;;;;;;;;;5010882;28;20125;-65
2022/04/11 03:00:48;;;;;;;8.25;4.40;;;;;;;;;;5014738;28;20374;-62
2022/04/11 03:03:13;;;;;;;11.15;3.88;;;;;;;;;;5014679;28;20083;-63
2022/04/11 03:05:39;;;;;;;5.43;2.97;;;;;;;;;;5014625;28;20034;-64
2022/04/11 03:08:04;;;;;;;12.55;3.97;;;;;;;;;;4995404;28;20018;-63
2022/04/11 03:10:30;;;;;;;6.55;2.20;;;;;;;;;;4994811;28;20467;-63
2022/04/11 03:12:56;;;;;;;5.90;2.28;;;;;;;;;;4996001;28;20101;-62
2022/04/11 03:15:21;;;;;;;5.40;1.80;;;;;;;;;;4995714;28;20034;-61
2022/04/11 03:17:47;;;;;;;5.55;2.28;;;;;;;;;;4995383;28;20101;-64
2022/04/11 03:20:12;;;;;;;7.40;2.13;;;;;;;;;;4988584;28;20429;-63
2022/04/11 03:22:38;;;;;;;6.95;2.25;;;;;;;;;;4975815;28;20034;-63
2022/04/11 03:25:04;;;;;;;5.65;2.13;;;;;;;;;;4975922;28;20039;-65
2022/04/11 03:27:30;;;;;;;6.10;2.15;;;;;;;;;;4975601;28;20388;-61
2022/04/11 03:29:55;;;;;;;5.35;1.70;;;;;;;;;;4975844;28;20038;-62
2022/04/11 03:32:21;;;;;;;6.13;2.13;;;;;;;;;;4975824;28;20027;-64
2022/04/11 03:34:47;;;;;;;4.55;2.08;;;;;;;;;;4975741;28;20468;-63
2022/04/11 03:37:12;;;;;;;6.43;2.72;;;;;;;;;;4975693;28;20102;-64
2022/04/11 03:39:38;;;;;;;8.13;2.08;;;;;;;;;;4975490;28;20080;-65
2022/04/11 03:42:04;;;;;;;7.00;2.50;;;;;;;;;;4975463;28;20106;-62
2022/04/11 03:44:29;;;;;;;7.63;2.30;;;;;;;;;;4975465;28;20483;-64
2022/04/11 03:46:55;;;;;;;7.18;2.17;;;;;;;;;;4975536;28;20070;-64
2022/04/11 03:49:20;;;;;;;8.20;2.55;;;;;;;;;;4975296;28;20488;-65
2022/04/11 03:51:46;;;;;;;6.38;2.75;;;;;;;;;;4975431;28;20428;-63
2022/04/11 03:54:12;;;;;;;7.95;2.95;;;;;;;;;;4975465;28;20022;-61
2022/04/11 03:56:37;;;;;;;6.55;1.95;;;;;;;;;;4987476;28;20031;-61
2022/04/11 03:59:03;;;;;;;10.13;2.95;;;;;;;;;;4993801;28;20062;-64
2022/04/11 04:01:28;;;;;;;5.30;2.40;;;;;;;;;;4994088;28;20027;-64
2022/04/11 04:03:54;;;;;;;6.70;2.10;;;;;;;;;;4994015;28;20030;-63
2022/04/11 04:06:20;;;;;;;5.32;1.80;;;;;;;;;;4993664;28;20395;-62
2022/04/11 04:08:45;;;;;;;5.75;1.95;;;;;;;;;;4998372;28;20034;-63
2022/04/11 04:11:11;;;;;;;7.13;2.72;;;;;;;;;;5013190;28;20033;-64
2022/04/11 04:13:36;;;;;;;6.90;3.00;;;;;;;;;;5000128;28;20537;-64
2022/04/11 04:16:02;;;;;;;5.68;2.80;;;;;;;;;;4994599;28;20026;-65
2022/04/11 04:18:27;;;;;;;7.25;2.80;;;;;;;;;;4994044;28;20042;-63
2022/04/11 04:20:53;;;;;;;7.55;2.88;;;;;;;;;;4982229;28;20042;-64
2022/04/11 04:23:18;;;;;;;7.28;2.50;;;;;;;;;;4974872;28;20031;-62
2022/04/11 04:25:44;;;;;;;6.38;2.38;;;;;;;;;;4975199;28;20530;-62
2022/04/11 04:28:09;;;;;;;9.40;2.53;;;;;;;;;;4975217;28;20383;-62
2022/04/11 04:30:35;;;;;;;5.25;2.40;;;;;;;;;;4975364;28;20026;-64
2022/04/11 04:33:02;;;;;;;10.85;3.85;;;;;;;;;;4975271;28;20130;-61
2022/04/11 04:35:27;;;;;;;8.02;2.28;;;;;;;;;;4975309;28;20430;-60
2022/04/11 04:37:53;;;;;;;6.00;2.35;;;;;;;;;;4975198;28;20042;-64
2022/04/11 04:40:19;;;;;;;4.82;2.22;;;;;;;;;;4974918;28;20027;-63
2022/04/11 04:42:44;;;;;;;4.93;2.67;;;;;;;;;;4974809;28;20031;-61
2022/04/11 04:45:10;;;;;;;5.00;2.22;;;;;;;;;;4974382;28;20082;-61
2022/04/11 04:47:36;;;;;;;5.55;2.50;;;;;;;;;;4974381;28;20106;-63
2022/04/11 04:50:01;;;;;;;7.05;2.72;;;;;;;;;;4974302;28;20452;-63
2022/04/11 04:52:27;;;;;;;6.88;2.75;;;;;;;;;;4974635;28;20034;-64
2022/04/11 04:54:52;;;;;;;4.60;2.10;;;;;;;;;;4975013;28;20124;-62
2022/04/11 04:57:18;;;;;;;3.70;2.25;;;;;;;;;;4995016;28;20133;-65
2022/04/11 04:59:43;;;;;;;6.90;2.72;;;;;;;;;;4994218;28;20109;-62
2022/04/11 05:02:09;;;;;;;10.27;2.88;;;;;;;;;;4994218;28;20108;-63
2022/04/11 05:04:34;;;;;;;5.15;2.50;;;;;;;;;;4994057;28;20030;-62
2022/04/11 05:07:00;;;;;;;6.85;2.63;;;;;;;;;;4994008;28;20105;-63
2022/04/11 05:09:25;;;;;;;9.43;2.80;;;;;;;;;;4993755;28;20045;-61
2022/04/11 05:11:51;;;;;;;6.10;2.70;;;;;;;;;;4993825;28;20026;-60
2022/04/11 05:14:16;;;;;;;4.43;2.55;;;;;;;;;;4993618;28;20475;-62
2022/04/11 05:16:42;;;;;;;11.45;3.03;;;;;;;;;;4993439;28;20037;-59
2022/04/11 05:19:07;;;;;;;9.73;2.53;;;;;;;;;;4992612;28;20057;-63
2022/04/11 05:21:33;;;;;;;7.88;2.70;;;;;;;;;;4975405;28;20042;-60
2022/04/11 05:23:58;;;;;;;8.75;2.45;;;;;;;;;;4973353;28;20499;-64
2022/04/11 05:26:24;;;;;;;7.32;2.75;;;;;;;;;;4973900;28;20121;-61
2022/04/11 05:28:49;;;;;;;5.50;2.65;;;;;;;;;;4973585;28;20058;-64
2022/04/11 05:31:16;;;;;;;6.22;2.30;;;;;;;;;;4974020;28;20038;-63
2022/04/11 05:33:41;;;;;;;4.80;2.40;;;;;;;;;;4973804;28;20568;-62
2022/04/11 05:36:07;;;;;;;8.05;2.45;;;;;;;;;;4974222;28;20114;-61
2022/04/11 05:38:33;;;;;;;5.82;2.28;;;;;;;;;;4973721;28;20043;-61
2022/04/11 05:40:58;;;;;;;5.22;2.40;;;;;;;;;;4973986;28;20129;-61
2022/04/11 05:43:24;;;;;;;11.23;2.42;;;;;;;;;;4973934;28;20073;-60
2022/04/11 05:45:50;;;;;;;7.13;2.45;;;;;;;;;;4973335;28;20488;-62
2022/04/11 05:48:15;;;;;;;9.00;2.63;;;;;;;;;;4973196;28;20062;-62
2022/04/11 05:50:41;;;;;;;12.18;2.58;;;;;;;;;;4973189;28;20489;-61
2022/04/11 05:53:07;;;;;;;8.90;2.35;;;;;;;;;;4973141;28;20035;-62
2022/04/11 05:55:32;;;;;;;7.88;1.88;;;;;;;;;;4973851;28;20102;-62
2022/04/11 05:57:58;;;;;;;7.68;2.20;;;;;;;;;;4973741;28;20570;-61
2022/04/11 06:00:24;;;;;;;8.45;2.42;;;;;;;;;;4972577;28;20030;-63
2022/04/11 06:02:50;;;;;;;5.47;2.10;;;;;;;;;;4973906;28;20031;-63
2022/04/11 06:05:15;;;;;;;8.45;2.03;;;;;;;;;;4974105;28;20480;-64
2022/04/11 06:07:41;;;;;;;6.35;2.63;;;;;;;;;;4973396;28;20072;-65
2022/04/11 06:10:08;;;;;;;7.47;2.40;;;;;;;;;;4973765;28;20027;-63
2022/04/11 06:12:34;;;;;;;5.75;2.47;;;;;;;;;;4973589;28;20085;-64
2022/04/11 06:14:59;;;;;;;6.90;2.33;;;;;;;;;;4973262;28;20026;-62
2022/04/11 06:17:25;;;;;;;13.20;2.30;;;;;;;;;;4973020;28;20431;-66
2022/04/11 06:19:56;;;;;;;7.68;2.33;;;;;;;;;;4972724;28;20057;-62
2022/04/11 06:22:22;;;;;;;7.25;2.20;;;;;;;;;;4972911;28;20109;-61
2022/04/11 06:24:49;;;;;;;10.25;2.50;;;;;;;;;;4973622;28;20098;-63
2022/04/11 06:27:15;;;;;;;5.18;2.03;;;;;;;;;;4973406;28;20062;-63
2022/04/11 06:29:41;;;;;;;6.70;2.10;;;;;;;;;;4973552;28;20056;-62
2022/04/11 06:32:07;;;;;;;7.22;2.20;;;;;;;;;;4977336;28;20089;-61
2022/04/11 06:34:32;;;;;;;6.45;2.05;;;;;;;;;;4977473;28;20031;-60
2022/04/11 06:36:58;;;;;;;6.57;2.20;;;;;;;;;;4976877;28;20031;-64
2022/04/11 06:39:24;;;;;;;7.93;2.70;;;;;;;;;;4977295;28;20023;-62
2022/04/11 06:41:49;;;;;;;8.98;2.40;;;;;;;;;;4977103;28;20041;-60
2022/04/11 06:44:15;;;;;;;9.95;2.00;;;;;;;;;;4977235;28;20065;-61
2022/04/11 06:46:41;;;;;;;9.02;2.53;;;;;;;;;;4976696;28;20384;-61
2022/04/11 06:49:06;;;;;;;3.67;1.70;;;;;;;;;;4976227;28;20027;-61
2022/04/11 06:51:32;;;;;;;5.35;2.30;;;;;;;;;;4976474;28;20034;-64
2022/04/11 06:53:57;;;;;;;5.22;2.40;;;;;;;;;;4976414;28;20058;-62
2022/04/11 06:56:23;;;;;;;7.35;2.50;;;;;;;;;;4976948;28;20082;-63
2022/04/11 06:58:48;;;;;;;5.32;2.47;;;;;;;;;;4977018;28;20373;-63
2022/04/11 07:01:14;;;;;;;5.90;2.20;;;;;;;;;;4976773;28;20038;-63
2022/04/11 07:03:39;;;;;;;8.73;3.05;;;;;;;;;;4976876;28;20468;-63
2022/04/11 07:06:05;;;;;;;10.25;3.05;;;;;;;;;;4976646;28;20429;-61
2022/04/11 07:08:30;;;;;;;8.20;2.88;;;;;;;;;;4976605;28;20563;-62
2022/04/11 07:10:59;;;;;;;6.55;2.63;;;;;;;;;;4976751;28;20038;-61
2022/04/11 07:13:25;;;;;;;8.80;2.40;;;;;;;;;;4976575;28;20114;-59
2022/04/11 07:15:50;;;;;;;9.95;2.88;;;;;;;;;;4976104;28;20034;-63
2022/04/11 07:18:16;;;;;;;7.13;2.55;;;;;;;;;;4983644;28;20041;-64
2022/04/11 07:20:42;;;;;;;6.80;2.70;;;;;;;;;;4993197;28;20050;-61
2022/04/11 07:23:07;;;;;;;7.57;2.65;;;;;;;;;;4989058;28;20035;-64
2022/04/11 07:25:33;;;;;;;8.63;2.58;;;;;;;;;;4984649;28;20113;-62
2022/04/11 07:27:58;;;;;;;10.63;3.13;;;;;;;;;;4986199;28;20030;-62
2022/04/11 07:30:24;;;;;;;11.50;2.90;;;;;;;;;;4985584;28;20404;-64
2022/04/11 07:32:50;;;;;;;5.88;3.13;;;;;;;;;;4984746;28;20022;-62
2022/04/11 07:35:15;;;;;;;12.15;5.10;;;;;;;;;;4986575;28;20034;-63
2022/04/11 07:37:41;;;;;;;6.70;2.85;;;;;;;;;;4985056;28;20102;-63
2022/04/11 07:40:07;;;;;;;11.30;3.40;;;;;;;;;;4985143;28;20036;-64
2022/04/11 07:42:33;;;;;;;5.45;2.40;;;;;;;;;;4986320;28;20021;-63
2022/04/11 07:44:58;;;;;;;6.80;2.80;;;;;;;;;;4984632;28;20023;-62
2022/04/11 07:47:24;;;;;;;3.90;2.10;;;;;;;;;;4985291;28;20530;-62
2022/04/11 07:49:49;;;;;;;9.02;3.58;;;;;;;;;;4988606;28;20031;-62
2022/04/11 07:52:15;;;;;;;13.35;4.78;;;;;;;;;;4984865;28;20025;-63
2022/04/11 07:54:40;;;;;;;6.72;3.30;;;;;;;;;;4984958;28;20030;-62
2022/04/11 07:57:07;;;;;;;5.75;2.17;;;;;;;;;;4983103;28;20062;-63
2022/04/11 07:59:33;;;;;;;6.75;3.50;;;;;;;;;;4984824;28;20026;-62
2022/04/11 08:01:58;;;;;;;13.93;4.47;;;;;;;;;;4984256;28;20041;-63
2022/04/11 08:04:24;;;;;;;9.48;4.95;;;;;;;;;;4983321;28;20490;-63
2022/04/11 08:06:49;;;;;;;6.22;2.75;;;;;;;;;;4985018;28;20030;-63
2022/04/11 08:09:15;;;;;;;9.00;2.90;;;;;;;;;;4983612;28;20031;-63
2022/04/11 08:11:40;;;;;;;5.15;2.33;;;;;;;;;;4983689;28;20026;-64
2022/04/11 08:14:06;;;;;;;4.05;1.90;;;;;;;;;;4985038;28;20021;-62
2022/04/11 08:16:31;;;;;;;7.13;2.92;;;;;;;;;;4983067;28;20097;-61
2022/04/11 08:18:57;;;;;;;8.23;3.35;;;;;;;;;;4983657;28;20125;-63
2022/04/11 08:21:22;;;;;;;5.38;2.33;;;;;;;;;;4987879;28;20252;-62
2022/04/11 08:23:48;;;;;;;9.23;3.10;;;;;;;;;;4982434;28;20494;-63
2022/04/11 08:26:13;;;;;;;10.27;2.67;;;;;;;;;;4984096;28;20022;-62
2022/04/11 08:28:39;;;;;;;8.02;2.60;;;;;;;;;;4983812;28;20029;-63
2022/04/11 08:31:05;;;;;;;8.63;3.65;;;;;;;;;;4982167;28;20066;-64
2022/04/11 08:33:30;;;;;;;7.85;2.28;;;;;;;;;;4984222;28;20033;-62
2022/04/11 08:35:56;;;;;;;6.20;2.13;;;;;;;;;;4983547;28;20050;-63
2022/04/11 08:38:21;;;;;;;3.70;2.25;;;;;;;;;;4982591;28;20022;-62
2022/04/11 08:40:47;;;;;;;6.43;2.38;;;;;;;;;;4984385;28;20493;-62
2022/04/11 08:43:14;;;;;;;3.95;2.10;;;;;;;;;;4982788;28;20307;-63
2022/04/11 08:45:39;;;;;;;4.93;1.92;;;;;;;;;;4983140;28;20014;-62
2022/04/11 08:48:05;;;;;;;5.13;1.98;;;;;;;;;;4983841;28;20065;-62
2022/04/11 08:50:31;;;;;;;6.68;3.00;;;;;;;;;;4982524;28;20054;-63
2022/04/11 08:52:57;;;;;;;3.85;1.60;;;;;;;;;;4982679;28;20026;-62
2022/04/11 08:55:22;;;;;;;3.63;1.63;;;;;;;;;;4984077;28;20165;-63
2022/04/11 08:57:48;;;;;;;8.45;1.88;;;;;;;;;;4981976;28;20026;-62
2022/04/11 09:00:16;;;;;;;9.55;2.50;;;;;;;;;;4977836;28;20122;-60
2022/04/11 09:02:43;;;;;;;5.90;2.17;;;;;;;;;;4974456;28;20109;-59
2022/04/11 09:05:10;;;;;;;5.15;2.10;;;;;;;;;;4974483;28;20019;-60
2022/04/11 09:07:47;;;;;;;3.80;1.95;;;;;;;;;;4974446;28;20026;-61
2022/04/11 09:10:17;;;;;;;5.78;2.60;;;;;;;;;;4974917;28;20030;-61
2022/04/11 09:12:51;;;;;;;5.82;2.50;;;;;;;;;;4974658;28;20098;-59
2022/04/11 09:15:18;;;;;;;11.80;4.13;;;;;;;;;;4974267;28;20046;-61
2022/04/11 09:17:45;;;;;;;5.43;2.67;;;;;;;;;;4974242;28;20027;-60
2022/04/11 09:20:18;;;;;;;4.60;2.08;;;;;;;;;;4974131;28;20055;-59
2022/04/11 09:22:44;;;;;;;5.82;2.30;;;;;;;;;;4978233;28;20026;-59
2022/04/11 09:25:14;;;;;;;3.63;2.33;;;;;;;;;;4993616;28;20030;-59
2022/04/11 09:27:40;;;;;;;7.22;2.35;;;;;;;;;;4993503;28;20069;-60
2022/04/11 09:30:23;;;;;;;4.03;1.70;;;;;;;;;;4993426;28;20058;-60
2022/04/11 09:33:10;;;;;;;4.20;2.08;;;;;;;;;;4991948;28;20053;-60
2022/04/11 09:35:41;;;;;;;3.70;1.80;;;;;;;;;;4993009;28;20038;-60
2022/04/11 09:38:13;;;;;;;3.40;1.60;;;;;;;;;;4993152;28;20023;-60
2022/04/11 09:40:48;;;;;;;4.28;2.10;;;;;;;;;;4993626;28;20030;-60
2022/04/11 09:43:15;;;;;;;6.38;1.90;;;;;;;;;;4993752;28;20165;-61
2022/04/11 09:45:48;;;;;;;5.07;1.88;;;;;;;;;;4993409;28;20026;-61
2022/04/11 09:48:18;;;;;;;7.95;2.80;;;;;;;;;;4993571;28;20045;-61
2022/04/11 09:50:44;;;;;;;4.18;2.10;;;;;;;;;;4993474;28;20030;-60
2022/04/11 09:53:13;;;;;;;6.88;1.75;;;;;;;;;;4993367;28;20494;-61
2022/04/11 09:55:40;;;;;;;4.00;1.83;;;;;;;;;;4993454;28;20093;-60
2022/04/11 09:58:06;;;;;;;3.63;1.95;;;;;;;;;;4993196;28;20077;-62
2022/04/11 10:00:34;;;;;;;3.53;1.90;;;;;;;;;;4992875;28;20105;-62
2022/04/11 10:03:01;;;;;;;4.50;1.80;;;;;;;;;;4974324;28;20435;-62
2022/04/11 10:05:27;;;;;;;7.78;3.00;;;;;;;;;;4972735;28;20113;-63
2022/04/11 10:07:54;;;;;;;5.72;2.03;;;;;;;;;;4973431;28;20544;-63
2022/04/11 10:10:21;;;;;;;5.22;1.88;;;;;;;;;;4973929;28;20038;-64
2022/04/11 10:12:48;;;;;;;2.75;1.50;;;;;;;;;;4973683;28;20039;-62
2022/04/11 10:15:14;;;;;;;5.88;1.85;;;;;;;;;;4973415;28;20113;-62
2022/04/11 10:17:40;;;;;;;5.40;1.98;;;;;;;;;;4973354;28;20498;-62
2022/04/11 10:20:06;;;;;;;4.25;2.00;;;;;;;;;;4973110;28;20051;-61
2022/04/11 10:22:38;;;;;;;4.40;2.00;;;;;;;;;;4973412;28;20055;-62
2022/04/11 10:25:07;;;;;;;12.75;3.47;;;;;;;;;;4973362;28;20085;-62
2022/04/11 10:27:34;;;;;;;9.63;3.20;;;;;;;;;;4975160;28;20442;-62
2022/04/11 10:30:02;;;;;;;3.75;1.58;;;;;;;;;;4982949;28;20170;-61
2022/04/11 10:32:30;;;;;;;2.95;1.40;;;;;;;;;;4980179;28;20031;-62
2022/04/11 10:35:00;;;;;;;2.38;1.38;;;;;;;;;;4981294;28;20022;-62
2022/04/11 10:37:46;;;;;;;2.45;1.50;;;;;;;;;;4982487;28;20101;-61
2022/04/11 10:40:19;;;;;;;11.68;1.88;;;;;;;;;;4968252;28;20042;-62
2022/04/11 10:43:09;;;;;;;3.60;1.80;;;;;;;;;;4982320;28;20018;-62
2022/04/11 10:45:55;;;;;;;4.57;2.63;;;;;;;;;;4982349;28;20026;-61
2022/04/11 10:48:24;;;;;;;6.05;1.40;;;;;;;;;;4983035;28;20116;-61
2022/04/11 10:50:53;;;;;;;3.60;1.38;;;;;;;;;;4983020;28;20053;-64
2022/04/11 10:53:27;;;;;;;2.10;0.90;;;;;;;;;;4984876;28;20089;-62
2022/04/11 10:56:04;;;;;;;2.45;1.00;;;;;;;;;;4996860;28;20034;-61
2022/04/11 10:58:45;;;;;;;2.90;0.98;;;;;;;;;;4994248;28;20053;-62
2022/04/11 11:01:12;;;;;;;2.33;1.45;;;;;;;;;;4993813;28;20118;-61
2022/04/11 11:03:40;;;;;;;4.63;1.77;;;;;;;;;;4992377;28;20375;-61
2022/04/11 11:06:22;;;;;;;23.90;2.60;;;;;;;;;;4996803;28;20022;-61
2022/04/11 11:08:48;;;;;;;2.40;1.10;;;;;;;;;;5011853;28;20088;-61
2022/04/11 11:11:27;;;;;;;5.32;1.35;;;;;;;;;;5012232;28;20042;-61
2022/04/11 11:13:56;;;;;;;3.40;1.33;;;;;;;;;;5005674;28;20368;-61
2022/04/11 11:16:22;;;;;;;1.48;1.00;;;;;;;;;;4992967;28;20029;-63
2022/04/11 11:18:51;;;;;;;5.30;1.20;;;;;;;;;;4997209;28;20450;-63
2022/04/11 11:21:16;;;;;;;3.15;1.50;;;;;;;;;;4995314;28;20092;-61
2022/04/11 11:24:02;;;;;;;3.83;1.42;;;;;;;;;;4995453;28;20030;-63
2022/04/11 11:26:31;;;;;;;2.47;1.20;;;;;;;;;;4995704;28;20041;-63
2022/04/11 11:28:57;;;;;;;2.70;1.20;;;;;;;;;;4995714;28;20053;-62
2022/04/11 11:31:22;;;;;;;4.30;1.60;;;;;;;;;;4995930;28;20034;-61
2022/04/11 11:33:51;;;;;;;6.88;1.73;;;;;;;;;;4995720;28;20049;-62
2022/04/11 11:36:16;;;;;;;3.30;1.58;;;;;;;;;;4995903;28;20070;-62
2022/04/11 11:38:42;;;;;;;2.90;1.20;;;;;;;;;;4995670;28;20066;-63
2022/04/11 11:41:07;;;;;;;4.60;1.40;;;;;;;;;;4995355;28;20064;-62
2022/04/11 11:43:33;;;;;;;3.88;1.40;;;;;;;;;;4994700;28;20023;-63
2022/04/11 11:46:06;;;;;;;4.05;1.42;;;;;;;;;;4995187;28;20033;-61
2022/04/11 11:48:33;;;;;;;3.95;1.17;;;;;;;;;;4995111;28;20034;-61
2022/04/11 11:51:01;;;;;;;4.72;1.70;;;;;;;;;;4995183;28;20028;-63
2022/04/11 11:53:43;;;;;;;1.58;1.17;;;;;;;;;;4995232;28;20471;-64
2022/04/11 11:56:09;;;;;;;3.63;1.58;;;;;;;;;;4995158;28;20088;-61
2022/04/11 11:58:35;;;;;;;2.47;1.20;;;;;;;;;;4995418;28;20561;-63
2022/04/11 12:01:02;;;;;;;3.00;1.20;;;;;;;;;;4995240;28;20027;-61
2022/04/11 12:06:12;;;;;;;3.72;1.10;;;;;;;;;;4995603;28;20029;-61
2022/04/11 12:08:37;;;;;;;4.03;1.42;;;;;;;;;;4995064;28;20030;-61
2022/04/11 12:11:03;;;;;;;2.10;1.10;;;;;;;;;;4995149;28;20034;-62
2022/04/11 12:13:33;;;;;;;6.90;2.92;;;;;;;;;;4995071;28;20109;-63
2022/04/11 12:16:10;;;;;;;6.15;2.60;;;;;;;;;;4995076;28;20413;-62
2022/04/11 12:18:55;;;;;;;6.40;2.67;;;;;;;;;;4994906;28;20030;-65
2022/04/11 12:21:34;;;;;;;3.55;1.30;;;;;;;;;;4994838;28;20070;-62
2022/04/11 12:24:01;;;;;;;3.75;1.35;;;;;;;;;;4994861;28;20041;-62
2022/04/11 12:26:30;;;;;;;4.65;1.77;;;;;;;;;;4994930;28;20022;-63
2022/04/11 12:28:57;;;;;;;4.22;1.60;;;;;;;;;;4993696;28;20079;-62
2022/04/11 12:31:23;;;;;;;2.47;1.30;;;;;;;;;;4994864;28;20053;-64
2022/04/11 12:33:51;;;;;;;6.18;1.70;;;;;;;;;;4994681;28;20428;-62
2022/04/11 12:36:27;;;;;;;4.45;2.05;;;;;;;;;;4992213;28;20399;-63
2022/04/11 12:38:53;;;;;;;6.78;2.65;;;;;;;;;;4993548;28;20030;-62
2022/04/11 12:41:40;;;;;;;6.68;2.65;;;;;;;;;;4994739;28;20050;-63
2022/04/11 12:44:15;;;;;;;9.85;2.55;;;;;;;;;;4991693;28;20076;-63
2022/04/11 12:46:43;;;;;;;2.92;1.40;;;;;;;;;;4991675;28;20477;-63
2022/04/11 12:49:10;;;;;;;5.35;2.50;;;;;;;;;;4997431;28;20034;-64
2022/04/11 12:51:36;;;;;;;7.38;2.05;;;;;;;;;;4996596;28;20029;-64
2022/04/11 12:54:07;;;;;;;2.42;1.30;;;;;;;;;;4993226;28;20491;-64
2022/04/11 12:56:36;;;;;;;;;;;;;;;;;;4996788;28;20361;-63
2022/04/11 12:59:03;;;;;;;4.15;2.38;;;;;;;;;;4994107;28;19960;-63
2022/04/11 13:01:48;;;;;;;5.07;3.20;;;;;;;;;;4997824;28;20022;-63
2022/04/11 13:04:13;;;;;;;11.80;5.53;;;;;;;;;;4994719;28;20038;-63
2022/04/11 13:06:39;;;;;;;8.77;5.63;;;;;;;;;;4993481;28;20037;-63
2022/04/11 13:09:04;;;;;;;6.20;3.42;;;;;;;;;;4993025;28;20491;-63
2022/04/11 13:11:30;;;;;;;5.00;2.13;;;;;;;;;;4993289;28;20034;-64
2022/04/11 13:13:55;;;;;;;4.88;1.95;;;;;;;;;;4993298;28;20456;-63
2022/04/11 13:19:05;;;;;;;2.75;1.58;;;;;;;;;;4990957;28;20052;-63
2022/04/11 13:21:30;;;;;;;2.63;1.55;;;;;;;;;;4993518;28;20030;-64
2022/04/11 13:23:56;;;;;;;5.25;1.52;;;;;;;;;;4993717;28;20026;-64
2022/04/11 13:26:22;;;;;;;2.60;1.40;;;;;;;;;;4993786;28;20101;-64
2022/04/11 13:28:47;;;;;;;3.65;1.40;;;;;;;;;;4993535;28;20045;-62
2022/04/11 13:31:12;;;;;;;2.15;1.20;;;;;;;;;;4992462;28;20048;-63
2022/04/11 13:33:39;;;;;;;5.50;1.58;;;;;;;;;;4993650;28;20022;-63
2022/04/11 13:36:04;;;;;;;8.00;1.58;;;;;;;;;;4993290;28;20037;-63
2022/04/11 13:38:30;;;;;;;2.75;1.58;;;;;;;;;;4993886;28;20030;-61
2022/04/11 13:40:55;;;;;;;3.00;1.80;;;;;;;;;;4993574;28;20447;-61
2022/04/11 13:43:20;;;;;;;2.00;1.08;;;;;;;;;;4993491;28;20022;-63
2022/04/11 13:45:46;;;;;;;3.53;1.30;;;;;;;;;;4992987;28;20089;-61
2022/04/11 13:48:12;;;;;;;2.17;1.17;;;;;;;;;;4993218;28;20125;-61
2022/04/11 13:50:38;;;;;;;2.80;0.93;;;;;;;;;;4993068;28;20097;-62
2022/04/11 13:53:04;;;;;;;4.97;1.40;;;;;;;;;;4993315;28;20058;-61
2022/04/11 13:55:30;;;;;;;3.13;1.40;;;;;;;;;;4993584;28;20093;-61
2022/04/11 13:57:55;;;;;;;2.95;1.13;;;;;;;;;;4993242;28;20467;-61
2022/04/11 14:00:21;;;;;;;4.70;1.38;;;;;;;;;;4993302;28;20030;-62
2022/04/11 14:02:47;;;;;;;5.00;1.50;;;;;;;;;;4993192;28;20027;-62
2022/04/11 14:05:12;;;;;;;4.15;1.70;;;;;;;;;;4992972;28;20030;-63
2022/04/11 14:07:38;;;;;;;4.00;1.95;;;;;;;;;;4993158;28;20046;-62
2022/04/11 14:10:04;;;;;;;4.85;2.50;;;;;;;;;;4992980;28;20543;-62
2022/04/11 14:12:29;;;;;;;5.78;2.08;;;;;;;;;;4993260;28;20030;-63
2022/04/11 14:14:55;;;;;;;3.90;1.67;;;;;;;;;;4993113;28;20026;-60
2022/04/11 14:17:20;;;;;;;3.47;1.50;;;;;;;;;;4993054;28;20022;-60
2022/04/11 14:19:46;;;;;;;3.45;1.40;;;;;;;;;;4992449;28;20467;-61
2022/04/11 14:22:11;;;;;;;2.63;1.30;;;;;;;;;;5012576;28;20034;-62
2022/04/11 14:24:37;;;;;;;2.72;1.45;;;;;;;;;;5012715;28;20025;-62
2022/04/11 14:27:02;;;;;;;4.00;1.70;;;;;;;;;;5012554;28;20026;-61
2022/04/11 14:29:28;;;;;;;5.03;1.52;;;;;;;;;;5012813;28;20044;-60
2022/04/11 14:31:55;;;;;;;4.60;1.60;;;;;;;;;;5012407;28;20149;-62
2022/04/11 14:34:21;;;;;;;3.95;1.50;;;;;;;;;;5012623;28;20022;-63
2022/04/11 14:36:47;;;;;;;4.07;1.80;;;;;;;;;;5012491;28;20550;-60
2022/04/11 14:39:13;;;;;;;2.42;1.20;;;;;;;;;;5012411;28;20032;-63
2022/04/11 14:41:40;;;;;;;3.28;1.70;;;;;;;;;;5012453;28;20057;-61
2022/04/11 14:44:05;;;;;;;5.65;1.70;;;;;;;;;;5001425;28;20037;-62
2022/04/11 14:46:32;;;;;;;3.58;1.33;;;;;;;;;;4993172;28;20026;-63